Terminal Aerodrome Forecast
Issued by NWS Nashville, TN

Home | Current Version | Previous Version | Text Only | Print | Product List | Glossary On
Versions: 1 2 3 4 5 6 7 8 9 10 11 12 13
387
FTUS44 KOHX 071740
TAFBNA
TAF
KBNA 071740Z 0718/0818 23005KT P6SM BKN250
     FM080200 21006KT P6SM OVC100
     FM080700 24007KT P6SM -SHRA OVC050
     FM081000 26006KT 6SM -SHRA BR OVC025
     FM081600 29010KT 5SM -SN OVC015=

USA.gov is the U.S. government's official web portal to all federal, state and local government web resources and services.